createdAt,value
2022-08-17T00:01:32.691Z,24.10
2022-08-17T00:04:19.471Z,24.10
2022-08-17T00:06:46.379Z,24.00
2022-08-17T00:09:18.919Z,24.00
2022-08-17T00:12:40.421Z,24.00
2022-08-17T00:14:33.640Z,24.00
2022-08-17T00:17:00.368Z,24.00
2022-08-17T00:19:27.306Z,24.00
2022-08-17T00:22:32.857Z,23.90
2022-08-17T00:24:43.467Z,23.90
2022-08-17T00:27:10.710Z,23.90
2022-08-17T00:29:37.719Z,23.80
2022-08-17T00:33:15.410Z,23.80
2022-08-17T00:34:51.500Z,23.70
2022-08-17T00:37:18.269Z,23.70
2022-08-17T00:39:45.082Z,23.60
2022-08-17T00:42:16.608Z,23.60
2022-08-17T00:44:43.358Z,23.60
2022-08-17T00:47:10.225Z,23.50
2022-08-17T00:49:36.960Z,23.50
2022-08-17T00:52:11.639Z,23.40
2022-08-17T00:54:41.711Z,23.40
2022-08-17T00:57:37.089Z,23.40
2022-08-17T01:00:11.468Z,23.30
2022-08-17T01:02:42.790Z,23.30
2022-08-17T01:05:19.069Z,23.20
2022-08-17T01:07:46.479Z,23.20
2022-08-17T01:10:59.176Z,23.20
2022-08-17T01:13:03.331Z,23.10
2022-08-17T01:15:31.483Z,23.00
2022-08-17T01:17:58.270Z,22.90
2022-08-17T01:20:25.156Z,22.90
2022-08-17T01:22:52.438Z,22.90
2022-08-17T01:25:19.196Z,22.90
2022-08-17T01:27:45.906Z,22.80
2022-08-17T01:30:56.923Z,22.70
2022-08-17T01:32:59.841Z,22.60
2022-08-17T01:35:26.715Z,22.50
2022-08-17T01:37:53.515Z,22.40
2022-08-17T01:40:39.051Z,22.30
2022-08-17T01:43:22.687Z,22.20
2022-08-17T01:46:02.835Z,22.10
2022-08-17T01:48:35.293Z,22.00
2022-08-17T01:51:02.164Z,21.90
2022-08-17T01:53:34.847Z,21.80
2022-08-17T01:56:09.887Z,21.70
2022-08-17T01:58:36.788Z,21.70
2022-08-17T02:01:04.048Z,21.60
2022-08-17T02:03:31.086Z,21.60
2022-08-17T02:05:58.114Z,21.50
2022-08-17T02:08:38.969Z,21.50
2022-08-17T02:11:14.697Z,21.50
2022-08-17T02:13:42.114Z,21.40
2022-08-17T02:16:08.878Z,21.40
2022-08-17T02:18:35.618Z,21.30
2022-08-17T02:21:02.426Z,21.20
2022-08-17T02:23:30.535Z,21.20
2022-08-17T02:25:58.678Z,21.20
2022-08-17T02:28:25.507Z,21.10
2022-08-17T02:31:01.945Z,21.10
2022-08-17T02:33:42.110Z,21.00
2022-08-17T02:36:11.116Z,20.90
2022-08-17T02:38:38.505Z,20.90
2022-08-17T02:41:05.456Z,20.80
2022-08-17T02:43:34.594Z,20.80
2022-08-17T02:46:01.995Z,20.80
2022-08-17T02:48:30.850Z,20.80
2022-08-17T02:50:58.176Z,20.70
2022-08-17T02:53:25.712Z,20.70
2022-08-17T02:55:52.708Z,20.70
2022-08-17T02:58:29.596Z,20.60
2022-08-17T03:01:03.504Z,20.60
2022-08-17T03:03:30.826Z,20.50
2022-08-17T03:05:57.896Z,20.50
2022-08-17T03:08:25.547Z,20.40
2022-08-17T03:10:52.544Z,20.40
2022-08-17T03:13:19.548Z,20.40
2022-08-17T03:15:46.519Z,20.40
2022-08-17T03:18:19.241Z,20.30
2022-08-17T03:20:54.768Z,20.30
2022-08-17T03:23:23.941Z,20.20
2022-08-17T03:25:52.981Z,20.20
2022-08-17T03:28:20.358Z,20.20
2022-08-17T03:30:47.107Z,20.10
2022-08-17T03:33:13.977Z,20.00
2022-08-17T03:35:40.848Z,20.00
2022-08-17T03:38:08.761Z,19.90
2022-08-17T03:40:57.941Z,19.90
2022-08-17T03:43:22.550Z,19.80
2022-08-17T03:46:24.877Z,19.80
2022-08-17T03:49:12.984Z,19.80
2022-08-17T03:51:58.386Z,19.80
2022-08-17T03:54:44.063Z,19.80
2022-08-17T03:57:11.657Z,19.80
2022-08-17T03:59:38.791Z,19.70
2022-08-17T04:02:11.955Z,19.70
2022-08-17T04:04:38.813Z,19.70
2022-08-17T04:07:05.795Z,19.80
2022-08-17T04:09:33.330Z,19.80
2022-08-17T04:12:04.778Z,19.90
2022-08-17T04:14:47.744Z,20.00
2022-08-17T04:17:21.257Z,20.10
2022-08-17T04:19:48.515Z,20.30
2022-08-17T04:22:32.233Z,20.50
2022-08-17T04:25:16.503Z,20.60
2022-08-17T04:27:44.135Z,20.90
2022-08-17T04:30:11.526Z,21.20
2022-08-17T04:33:08.734Z,21.40
2022-08-17T04:35:50.163Z,21.70
2022-08-17T04:38:19.284Z,22.10
2022-08-17T04:41:04.442Z,22.50
2022-08-17T04:51:34.576Z,23.80
2022-08-17T04:54:07.274Z,24.30
2022-08-17T04:56:57.129Z,24.60
2022-08-17T04:59:24.079Z,25.10
2022-08-17T05:01:51.531Z,25.50
2022-08-17T05:04:34.010Z,25.80
2022-08-17T05:07:07.700Z,26.10
2022-08-17T05:09:37.002Z,26.50
2022-08-17T05:12:25.169Z,26.80
2022-08-17T05:18:03.651Z,27.50
2022-08-17T05:20:33.070Z,27.80
2022-08-17T05:23:07.123Z,28.10
2022-08-17T05:25:41.685Z,28.50
2022-08-17T05:28:32.036Z,28.70
2022-08-17T05:31:05.314Z,29.00
2022-08-17T05:33:37.729Z,29.30
2022-08-17T05:36:41.962Z,29.60
2022-08-17T05:39:02.964Z,29.80
2022-08-17T05:41:35.536Z,30.20
2022-08-17T05:44:05.543Z,30.50
2022-08-17T05:46:38.377Z,30.70
2022-08-17T05:49:07.919Z,31.00
2022-08-17T05:51:58.855Z,31.40
2022-08-17T05:54:42.370Z,31.80
2022-08-17T05:57:47.459Z,32.30
2022-08-17T06:00:30.275Z,32.60
2022-08-17T06:03:12.797Z,33.00
2022-08-17T06:06:02.481Z,33.30
2022-08-17T06:08:42.601Z,33.40
2022-08-17T06:11:41.664Z,33.60
2022-08-17T06:14:23.350Z,33.70
2022-08-17T06:17:14.703Z,33.90
2022-08-17T06:19:58.200Z,34.10
2022-08-17T06:22:28.150Z,34.20
2022-08-17T06:25:10.168Z,34.20
2022-08-17T06:27:47.569Z,34.30
2022-08-17T06:30:25.606Z,34.50
2022-08-17T06:32:53.347Z,34.60
2022-08-17T06:35:30.040Z,34.80
2022-08-17T06:38:04.239Z,34.90
2022-08-17T06:40:45.516Z,35.00
2022-08-17T06:43:43.111Z,35.20
2022-08-17T06:46:27.810Z,35.20
2022-08-17T06:49:07.353Z,35.10
2022-08-17T06:51:43.310Z,35.20
2022-08-17T06:54:30.697Z,35.30
2022-08-17T06:57:02.013Z,35.50
2022-08-17T06:59:54.384Z,35.70
2022-08-17T07:03:02.552Z,36.00
2022-08-17T07:05:34.212Z,36.10
2022-08-17T07:08:27.691Z,35.80
2022-08-17T07:10:57.773Z,35.60
2022-08-17T07:13:29.755Z,35.60
2022-08-17T07:16:04.712Z,35.60
2022-08-17T07:18:33.226Z,35.70
2022-08-17T07:21:07.411Z,36.00
2022-08-17T07:24:00.656Z,36.20
2022-08-17T07:26:28.021Z,36.10
2022-08-17T07:28:56.246Z,36.00
2022-08-17T07:31:25.016Z,36.00
2022-08-17T07:34:08.672Z,35.90
2022-08-17T07:36:35.465Z,36.00
2022-08-17T07:39:02.679Z,36.00
2022-08-17T07:41:59.102Z,36.00
2022-08-17T07:44:17.593Z,36.20
2022-08-17T07:47:08.388Z,36.40
2022-08-17T07:49:47.503Z,36.50
2022-08-17T07:52:50.573Z,36.60
2022-08-17T07:55:32.744Z,36.70
2022-08-17T07:58:00.163Z,36.90
2022-08-17T08:00:32.410Z,37.00
2022-08-17T08:03:11.613Z,37.00
2022-08-17T08:05:50.335Z,36.90
2022-08-17T08:08:53.188Z,36.60
2022-08-17T08:11:34.268Z,36.40
2022-08-17T08:14:29.955Z,36.00
2022-08-17T08:17:09.413Z,35.50
2022-08-17T08:19:36.307Z,35.00
2022-08-17T08:22:11.158Z,34.60
2022-08-17T08:25:00.106Z,34.30
2022-08-17T08:27:36.466Z,34.10
2022-08-17T08:30:06.614Z,34.00
2022-08-17T08:33:05.612Z,33.90
2022-08-17T08:35:37.259Z,33.70
2022-08-17T08:38:32.548Z,33.20
2022-08-17T08:41:20.427Z,33.10
2022-08-17T08:44:12.865Z,33.00
2022-08-17T08:47:10.315Z,33.10
2022-08-17T08:50:05.326Z,33.30
2022-08-17T08:52:41.584Z,33.50
2022-08-17T08:55:43.489Z,33.60
2022-08-17T08:58:31.706Z,33.70
2022-08-17T09:01:08.805Z,33.60
2022-08-17T09:04:16.990Z,33.40
2022-08-17T09:06:57.883Z,33.30
2022-08-17T09:10:00.749Z,33.30
2022-08-17T09:12:33.452Z,33.40
2022-08-17T09:15:18.702Z,33.10
2022-08-17T09:18:58.830Z,32.90
2022-08-17T09:20:55.320Z,32.90
2022-08-17T09:23:32.865Z,33.00
2022-08-17T09:26:22.468Z,33.20
2022-08-17T09:28:53.602Z,33.40
2022-08-17T09:31:35.431Z,33.70
2022-08-17T09:34:18.202Z,33.80
2022-08-17T09:36:55.261Z,33.80
2022-08-17T09:39:35.201Z,34.00
2022-08-17T09:42:12.179Z,34.10
2022-08-17T09:44:52.256Z,34.30
2022-08-17T09:47:39.588Z,34.40
2022-08-17T09:50:13.643Z,34.60
2022-08-17T09:52:41.129Z,34.80
2022-08-17T09:55:08.095Z,34.90
2022-08-17T09:58:04.969Z,35.10
2022-08-17T10:00:35.395Z,35.30
2022-08-17T10:03:28.235Z,35.50
2022-08-17T10:06:13.370Z,35.40
2022-08-17T10:08:42.818Z,35.40
2022-08-17T10:11:55.106Z,35.40
2022-08-17T10:14:36.294Z,35.60
2022-08-17T10:17:25.826Z,35.60
2022-08-17T10:20:19.452Z,35.40
2022-08-17T10:23:10.621Z,35.30
2022-08-17T10:25:57.272Z,35.30
2022-08-17T10:28:29.561Z,35.30
2022-08-17T10:31:23.349Z,35.20
2022-08-17T10:33:58.355Z,35.10
2022-08-17T10:36:29.176Z,35.00
2022-08-17T10:39:15.047Z,34.90
2022-08-17T10:41:44.503Z,34.80
2022-08-17T10:44:48.579Z,34.60
2022-08-17T10:47:16.838Z,34.50
2022-08-17T10:49:47.959Z,34.50
2022-08-17T10:52:20.809Z,34.60
2022-08-17T10:54:48.373Z,34.60
2022-08-17T10:57:27.453Z,34.60
2022-08-17T10:59:57.187Z,34.40
2022-08-17T11:02:27.428Z,34.20
2022-08-17T11:04:59.901Z,34.20
2022-08-17T11:07:43.838Z,34.10
2022-08-17T11:10:20.320Z,34.20
2022-08-17T11:13:05.720Z,34.00
2022-08-17T11:15:45.120Z,33.80
2022-08-17T11:18:30.713Z,33.80
2022-08-17T11:21:09.964Z,33.60
2022-08-17T11:24:05.096Z,33.40
2022-08-17T11:26:36.135Z,33.40
2022-08-17T11:29:24.752Z,33.50
2022-08-17T11:32:07.876Z,33.80
2022-08-17T11:34:38.021Z,34.10
2022-08-17T11:37:04.921Z,34.20
2022-08-17T11:40:03.369Z,34.40
2022-08-17T11:42:57.895Z,34.60
2022-08-17T11:46:02.094Z,34.60
2022-08-17T11:49:20.909Z,34.30
2022-08-17T11:52:00.380Z,34.10
2022-08-17T11:54:33.744Z,33.90
2022-08-17T11:57:26.416Z,33.90
2022-08-17T11:59:54.306Z,33.80
2022-08-17T12:02:32.900Z,33.70
2022-08-17T12:05:14.863Z,33.70
2022-08-17T12:07:57.295Z,33.90
2022-08-17T12:10:31.688Z,34.10
2022-08-17T12:13:14.668Z,34.20
2022-08-17T12:15:49.670Z,34.10
2022-08-17T12:18:24.592Z,34.00
2022-08-17T12:21:23.039Z,34.10
2022-08-17T12:24:18.960Z,34.00
2022-08-17T12:26:55.762Z,34.00
2022-08-17T12:29:35.833Z,33.90
2022-08-17T12:32:06.804Z,34.00
2022-08-17T12:34:41.081Z,34.10
2022-08-17T12:37:15.258Z,34.10
2022-08-17T12:39:59.298Z,34.10
2022-08-17T12:42:37.669Z,34.10
2022-08-17T12:45:06.651Z,34.00
2022-08-17T12:47:37.088Z,33.90
2022-08-17T12:50:29.145Z,33.70
2022-08-17T12:53:01.615Z,33.50
2022-08-17T12:55:32.529Z,33.30
2022-08-17T12:58:01.801Z,33.30
2022-08-17T13:00:34.305Z,33.20
2022-08-17T13:03:25.478Z,33.20
2022-08-17T13:05:52.209Z,33.10
2022-08-17T13:08:27.015Z,33.10
2022-08-17T13:10:55.645Z,33.10
2022-08-17T13:13:24.825Z,33.00
2022-08-17T13:16:05.686Z,32.90
2022-08-17T13:18:48.283Z,32.90
2022-08-17T13:21:26.725Z,32.90
2022-08-17T13:24:06.862Z,32.90
2022-08-17T13:26:59.277Z,32.90
2022-08-17T13:29:34.619Z,32.80
2022-08-17T13:32:05.068Z,32.80
2022-08-17T13:35:12.051Z,32.80
2022-08-17T13:37:33.551Z,32.80
2022-08-17T13:40:09.418Z,32.90
2022-08-17T13:42:52.407Z,32.80
2022-08-17T13:45:34.247Z,32.70
2022-08-17T13:48:14.013Z,32.70
2022-08-17T13:50:49.754Z,32.70
2022-08-17T13:53:33.196Z,32.70
2022-08-17T13:56:37.558Z,32.70
2022-08-17T13:59:52.651Z,32.60
2022-08-17T14:02:17.158Z,32.60
2022-08-17T14:04:44.500Z,32.50
2022-08-17T14:07:12.486Z,32.50
2022-08-17T14:09:54.118Z,32.60
2022-08-17T14:12:25.011Z,32.60
2022-08-17T14:14:52.155Z,32.60
2022-08-17T14:17:19.132Z,32.60
2022-08-17T14:19:45.884Z,32.60
2022-08-17T14:22:18.332Z,32.70
2022-08-17T14:24:45.192Z,32.70
2022-08-17T14:27:12.112Z,32.70
2022-08-17T14:29:41.060Z,32.70
2022-08-17T14:32:21.398Z,32.70
2022-08-17T14:34:49.586Z,32.70
2022-08-17T14:37:20.032Z,32.80
2022-08-17T14:39:47.075Z,32.70
2022-08-17T14:42:15.084Z,32.70
2022-08-17T14:44:41.838Z,32.60
2022-08-17T14:47:14.821Z,32.60
2022-08-17T14:49:42.223Z,32.60
2022-08-17T14:52:09.316Z,32.60
2022-08-17T14:54:36.040Z,32.50
2022-08-17T14:57:24.797Z,32.60
2022-08-17T14:59:53.404Z,32.60
2022-08-17T15:02:22.701Z,32.60
2022-08-17T15:05:02.774Z,32.60
2022-08-17T15:07:30.595Z,32.60
2022-08-17T15:09:58.924Z,32.60
2022-08-17T15:12:32.403Z,32.60
2022-08-17T15:15:00.670Z,32.50
2022-08-17T15:17:27.485Z,32.50
2022-08-17T15:20:19.712Z,32.50
2022-08-17T15:22:49.398Z,32.40
2022-08-17T15:25:16.559Z,32.30
2022-08-17T15:27:44.057Z,32.30
2022-08-17T15:30:11.773Z,32.30
2022-08-17T15:32:39.607Z,32.20
2022-08-17T15:35:07.150Z,32.20
2022-08-17T15:37:33.970Z,32.10
2022-08-17T15:40:01.143Z,32.10
2022-08-17T15:42:29.286Z,32.10
2022-08-17T15:44:56.098Z,32.00
2022-08-17T15:47:24.405Z,32.00
2022-08-17T15:49:51.149Z,32.00
2022-08-17T15:52:23.006Z,31.90
2022-08-17T15:54:54.133Z,31.90
2022-08-17T15:57:20.996Z,31.80
2022-08-17T15:59:52.122Z,31.90
2022-08-17T16:03:45.875Z,31.90
2022-08-17T16:05:24.880Z,31.90
2022-08-17T16:07:52.438Z,31.90
2022-08-17T16:10:19.704Z,31.90
2022-08-17T16:12:47.635Z,32.00
2022-08-17T16:15:14.649Z,32.00
2022-08-17T16:17:41.586Z,32.00
2022-08-17T16:20:09.964Z,32.00
2022-08-17T16:22:48.312Z,32.10
2022-08-17T16:25:20.776Z,32.10
2022-08-17T16:27:48.283Z,32.10
2022-08-17T16:30:18.291Z,32.10
2022-08-17T16:32:45.219Z,32.10
2022-08-17T16:35:12.376Z,32.00
2022-08-17T16:37:40.329Z,32.00
2022-08-17T16:40:11.872Z,32.00
2022-08-17T16:42:39.703Z,31.90
2022-08-17T16:45:08.153Z,31.90
2022-08-17T16:47:34.942Z,31.80
2022-08-17T16:50:04.095Z,31.80
2022-08-17T16:52:32.615Z,31.70
2022-08-17T16:55:00.973Z,31.60
2022-08-17T16:57:27.861Z,31.60
2022-08-17T16:59:54.621Z,31.60
2022-08-17T17:02:41.211Z,31.50
2022-08-17T17:05:16.851Z,31.50
2022-08-17T17:07:58.454Z,31.40
2022-08-17T17:10:36.145Z,31.30
2022-08-17T17:13:04.480Z,31.20
2022-08-17T17:15:42.927Z,31.20
2022-08-17T17:18:09.806Z,31.20
2022-08-17T17:20:42.916Z,31.10
2022-08-17T17:23:52.998Z,31.00
2022-08-17T17:26:25.565Z,31.00
2022-08-17T17:29:02.300Z,30.90
2022-08-17T17:31:33.724Z,30.90
2022-08-17T17:34:02.990Z,30.80
2022-08-17T17:36:50.303Z,30.70
2022-08-17T17:39:41.485Z,30.60
2022-08-17T17:42:20.194Z,30.40
2022-08-17T17:44:58.576Z,30.20
2022-08-17T17:47:26.595Z,30.00
2022-08-17T17:49:53.384Z,29.90
2022-08-17T17:52:32.833Z,29.80
2022-08-17T17:55:23.136Z,29.60
2022-08-17T17:57:57.817Z,29.50
2022-08-17T18:00:26.028Z,29.30
2022-08-17T18:03:08.955Z,29.20
2022-08-17T18:05:54.941Z,29.10
2022-08-17T18:08:34.703Z,28.90
2022-08-17T18:11:05.116Z,28.70
2022-08-17T18:13:53.376Z,28.60
2022-08-17T18:16:20.610Z,28.40
2022-08-17T18:18:47.968Z,28.30
2022-08-17T18:21:45.862Z,28.10
2022-08-17T18:24:13.251Z,27.90
2022-08-17T18:26:47.792Z,27.80
2022-08-17T18:29:24.195Z,27.70
2022-08-17T18:32:11.844Z,27.50
2022-08-17T18:34:47.277Z,27.40
2022-08-17T18:37:33.122Z,27.30
2022-08-17T18:40:08.288Z,27.20
2022-08-17T18:42:35.369Z,27.00
2022-08-17T18:45:02.392Z,26.90
2022-08-17T18:47:29.614Z,26.80
2022-08-17T18:50:00.531Z,26.70
2022-08-17T18:52:29.941Z,26.50
2022-08-17T18:55:01.009Z,26.40
2022-08-17T18:57:40.687Z,26.30
2022-08-17T19:00:38.401Z,26.30
2022-08-17T19:03:20.257Z,26.20
2022-08-17T19:05:50.557Z,26.10
2022-08-17T19:08:34.457Z,26.00
2022-08-17T19:11:05.806Z,25.90
2022-08-17T19:13:55.053Z,25.80
2022-08-17T19:16:21.780Z,25.80
2022-08-17T19:19:00.172Z,25.70
2022-08-17T19:21:36.330Z,25.60
2022-08-17T19:24:20.458Z,25.50
2022-08-17T19:27:18.348Z,25.50
2022-08-17T19:30:05.325Z,25.40
2022-08-17T19:32:34.813Z,25.40
2022-08-17T19:35:02.318Z,25.40
2022-08-17T19:37:48.309Z,25.30
2022-08-17T19:40:52.488Z,25.30
2022-08-17T19:43:41.789Z,25.20
2022-08-17T19:46:11.536Z,25.10
2022-08-17T19:49:00.484Z,25.10
2022-08-17T19:51:36.020Z,25.00
2022-08-17T19:54:44.157Z,25.00
2022-08-17T19:57:44.184Z,25.10
2022-08-17T20:00:14.004Z,25.10
2022-08-17T20:03:08.593Z,25.10
2022-08-17T20:06:09.179Z,25.10
2022-08-17T20:08:58.879Z,25.10
2022-08-17T20:11:34.244Z,25.00
2022-08-17T20:14:00.969Z,24.90
2022-08-17T20:16:27.865Z,24.90
2022-08-17T20:19:24.324Z,24.80
2022-08-17T20:21:58.455Z,24.70
2022-08-17T20:24:44.367Z,24.70
2022-08-17T20:27:15.581Z,24.60
2022-08-17T20:30:04.052Z,24.70
2022-08-17T20:32:53.035Z,24.70
2022-08-17T20:35:21.495Z,24.60
2022-08-17T20:37:58.257Z,24.50
2022-08-17T20:40:30.938Z,24.50
2022-08-17T20:42:57.961Z,24.50
2022-08-17T20:45:27.155Z,24.50
2022-08-17T20:48:30.861Z,24.50
2022-08-17T20:50:55.025Z,24.50
2022-08-17T20:53:46.671Z,24.50
2022-08-17T20:56:44.880Z,24.40
2022-08-17T20:59:30.344Z,24.40
2022-08-17T21:02:12.396Z,24.40
2022-08-17T21:04:47.475Z,24.30
2022-08-17T21:07:43.464Z,24.30
2022-08-17T21:10:17.772Z,24.30
2022-08-17T21:12:47.940Z,24.30
2022-08-17T21:15:36.030Z,24.40
2022-08-17T21:18:28.562Z,24.30
2022-08-17T21:21:24.322Z,24.30
2022-08-17T21:24:00.069Z,24.30
2022-08-17T21:26:50.436Z,24.20
2022-08-17T21:29:31.376Z,24.20
2022-08-17T21:31:59.496Z,24.20
2022-08-17T21:34:36.000Z,24.20
2022-08-17T21:37:24.893Z,24.20
2022-08-17T21:40:12.244Z,24.20
2022-08-17T21:42:47.705Z,24.20
2022-08-17T21:45:22.136Z,24.10
2022-08-17T21:47:50.482Z,24.10
2022-08-17T21:50:23.147Z,24.10
2022-08-17T21:52:54.027Z,24.00
2022-08-17T21:55:28.090Z,24.00
2022-08-17T21:58:14.345Z,23.90
2022-08-17T22:00:42.459Z,23.80
2022-08-17T22:03:09.548Z,23.80
2022-08-17T22:05:38.008Z,23.70
2022-08-17T22:08:16.515Z,23.70
2022-08-17T22:10:44.733Z,23.60
2022-08-17T22:13:18.368Z,23.60
2022-08-17T22:15:51.308Z,23.60
2022-08-17T22:18:21.933Z,23.70
2022-08-17T22:21:07.073Z,23.80
2022-08-17T22:23:58.060Z,23.90
2022-08-17T22:26:28.186Z,23.90
2022-08-17T22:28:58.459Z,23.80
2022-08-17T22:31:29.748Z,23.80
2022-08-17T22:34:02.158Z,23.70
2022-08-17T22:36:33.574Z,23.60
2022-08-17T22:39:09.007Z,23.50
2022-08-17T22:42:00.225Z,23.50
2022-08-17T22:44:37.777Z,23.40
2022-08-17T22:47:23.973Z,23.40
2022-08-17T22:49:58.867Z,23.30
2022-08-17T22:52:35.082Z,23.20
2022-08-17T22:55:34.945Z,23.20
2022-08-17T22:58:21.733Z,23.10
2022-08-17T23:00:54.425Z,23.10
2022-08-17T23:03:25.657Z,23.10
2022-08-17T23:06:05.750Z,23.00
2022-08-17T23:08:34.879Z,23.00
2022-08-17T23:11:01.686Z,22.90
2022-08-17T23:13:28.608Z,22.90
2022-08-17T23:15:55.369Z,22.90
2022-08-17T23:18:23.450Z,23.00
2022-08-17T23:20:50.268Z,23.00
2022-08-17T23:23:23.453Z,22.90
2022-08-17T23:25:50.639Z,23.00
2022-08-17T23:28:17.359Z,22.90
2022-08-17T23:30:44.521Z,22.90
2022-08-17T23:33:21.290Z,22.80
2022-08-17T23:35:48.131Z,22.80
2022-08-17T23:38:14.872Z,22.70
2022-08-17T23:40:41.717Z,22.70
2022-08-17T23:43:17.434Z,22.70
2022-08-17T23:45:56.205Z,22.60
2022-08-17T23:48:32.740Z,22.60
2022-08-17T23:51:05.759Z,22.60
2022-08-17T23:53:34.139Z,22.60
2022-08-17T23:56:09.079Z,22.60
2022-08-17T23:58:38.523Z,22.50
